Time;durP1;ratioP1;P1;durP2;ratioP2;P2;SDS_P1;SDS_P2;PMS_P1;PMS_P2;Temp;Humidity;BMP_temperature;BMP_pressure;BME280_temperature;BME280_humidity;BME280_pressure;Samples;Min_cycle;Max_cycle;Signal;HPM_P1;HPM_P2
2023/03/01 00:00:04;;;;;;;0.70;0.70;;;;;;;-2.27;75.65;97563.69;29373;196;63004;-56
2023/03/01 00:00:35;;;;;;;0.70;0.70;;;;;;;-2.27;76.47;97569.00;29373;199;63008;-57
2023/03/01 00:01:10;;;;;;;0.70;0.70;;;;;;;-2.31;76.30;97565.09;29371;196;64008;-56
2023/03/01 00:01:42;;;;;;;0.70;0.70;;;;;;;-2.36;76.41;97568.31;29373;286;63009;-56
2023/03/01 00:02:13;;;;;;;0.65;0.65;;;;;;;-2.38;76.44;97577.50;29373;270;63005;-56
2023/03/01 00:02:44;;;;;;;0.70;0.70;;;;;;;-2.37;76.52;97573.84;29373;289;63009;-55
2023/03/01 00:03:16;;;;;;;0.60;0.60;;;;;;;-2.36;76.05;97567.50;29371;202;64009;-56
2023/03/01 00:03:48;;;;;;;0.75;0.75;;;;;;;-2.34;75.79;97562.81;29373;266;63028;-57
2023/03/01 00:04:19;;;;;;;0.60;0.60;;;;;;;-2.31;75.75;97565.09;29373;279;63009;-57
2023/03/01 00:04:50;;;;;;;0.70;0.70;;;;;;;-2.29;75.55;97568.38;29373;323;63009;-67
2023/03/01 00:05:22;;;;;;;0.60;0.60;;;;;;;-2.30;75.42;97566.72;29373;228;63004;-56
2023/03/01 00:05:53;;;;;;;0.70;0.70;;;;;;;-2.35;75.81;97569.16;29373;247;63009;-67
2023/03/01 00:06:25;;;;;;;0.60;0.60;;;;;;;-2.40;76.10;97571.56;29373;236;63004;-56
2023/03/01 00:06:57;;;;;;;0.60;0.60;;;;;;;-2.41;76.28;97569.91;29373;297;63009;-56
2023/03/01 00:07:28;;;;;;;0.70;0.70;;;;;;;-2.40;76.14;97571.56;29373;231;63004;-56
2023/03/01 00:08:00;;;;;;;0.65;0.65;;;;;;;-2.39;75.84;97573.22;29373;217;63008;-56
2023/03/01 00:08:32;;;;;;;0.82;0.82;;;;;;;-2.38;75.68;97574.84;29371;242;64008;-56
2023/03/01 00:09:04;;;;;;;0.60;0.60;;;;;;;-2.38;76.17;97580.16;29373;203;63009;-56
2023/03/01 00:09:37;;;;;;;0.70;0.70;;;;;;;-2.38;76.08;97573.00;29373;202;63005;-68
2023/03/01 00:10:11;;;;;;;0.70;0.70;;;;;;;-2.38;76.33;97577.50;29373;226;63013;-54
2023/03/01 00:10:43;;;;;;;0.60;0.60;;;;;;;-2.37;76.36;97571.19;29373;236;63005;-57
2023/03/01 00:11:26;;;;;;;0.70;0.70;;;;;;;-2.38;76.30;97573.00;29373;215;63009;-57
2023/03/01 00:11:57;;;;;;;0.70;0.70;;;;;;;-2.37;76.40;97576.50;29373;210;63005;-56
2023/03/01 00:12:36;;;;;;;0.60;0.60;;;;;;;-2.36;76.19;97578.13;29373;250;63009;-57
2023/03/01 00:13:07;;;;;;;0.70;0.70;;;;;;;-2.35;76.06;97574.47;29373;199;63004;-56
2023/03/01 00:13:39;;;;;;;0.62;0.62;;;;;;;-2.34;75.88;97575.28;29371;238;64013;-56
2023/03/01 00:14:11;;;;;;;0.60;0.60;;;;;;;-2.33;75.81;97572.44;29373;236;63000;-56
2023/03/01 00:14:53;;;;;;;0.68;0.68;;;;;;;-2.33;75.95;97576.94;29373;203;63009;-57
2023/03/01 00:15:25;;;;;;;0.70;0.70;;;;;;;-2.33;76.03;97580.41;29371;227;64008;-57
2023/03/01 00:15:59;;;;;;;0.60;0.60;;;;;;;-2.34;75.65;97573.44;29373;271;63008;-56
2023/03/01 00:16:39;;;;;;;0.70;0.70;;;;;;;-2.33;76.00;97577.75;29371;304;64009;-67
2023/03/01 00:17:11;;;;;;;2.00;1.95;;;;;;;-2.34;75.76;97575.28;29373;222;63009;-68
2023/03/01 00:17:42;;;;;;;0.70;0.70;;;;;;;-2.33;75.56;97580.41;29373;235;63005;-56
2023/03/01 00:18:13;;;;;;;0.62;0.62;;;;;;;-2.33;75.81;97579.59;29373;228;63009;-56
2023/03/01 00:18:45;;;;;;;0.60;0.60;;;;;;;-2.34;75.65;97581.41;29373;233;63005;-56
2023/03/01 00:19:19;;;;;;;0.60;0.60;;;;;;;-2.34;75.42;97570.78;29373;299;63016;-56
2023/03/01 00:19:50;;;;;;;0.60;0.60;;;;;;;-2.32;75.42;97576.72;29373;278;63005;-57
2023/03/01 00:20:22;;;;;;;0.70;0.70;;;;;;;-2.30;75.14;97574.72;29373;351;63009;-56
2023/03/01 00:20:55;;;;;;;0.68;0.68;;;;;;;-2.30;75.29;97566.72;29373;215;63004;-57
2023/03/01 00:21:27;;;;;;;0.90;0.90;;;;;;;-2.30;75.46;97577.37;29373;206;63009;-57
2023/03/01 00:21:59;;;;;;;0.70;0.70;;;;;;;-2.31;75.94;97575.72;29371;279;64009;-68
2023/03/01 00:22:30;;;;;;;0.70;0.70;;;;;;;-2.31;75.92;97578.38;29373;216;63009;-57
2023/03/01 00:23:01;;;;;;;0.70;0.70;;;;;;;-2.31;75.88;97578.38;29373;294;63004;-56
2023/03/01 00:23:35;;;;;;;0.70;0.70;;;;;;;-2.32;76.26;97583.88;29372;247;63008;-56
2023/03/01 00:24:06;;;;;;;0.65;0.65;;;;;;;-2.34;76.06;97578.75;29373;205;63016;-57
2023/03/01 00:24:37;;;;;;;0.70;0.70;;;;;;;-2.33;76.28;97576.94;29373;304;63009;-56
2023/03/01 00:25:11;;;;;;;0.70;0.70;;;;;;;-2.34;76.41;97581.41;29373;213;63005;-56
2023/03/01 00:25:43;;;;;;;0.70;0.70;;;;;;;-2.34;76.36;97575.28;29371;372;64013;-56
2023/03/01 00:26:16;;;;;;;0.68;0.68;;;;;;;-2.35;76.10;97577.13;29373;254;63016;-56
2023/03/01 00:26:47;;;;;;;0.70;0.70;;;;;;;-2.36;75.99;97583.44;29373;260;63009;-56
2023/03/01 00:27:18;;;;;;;0.60;0.60;;;;;;;-2.40;75.89;97577.69;29373;387;63005;-56
2023/03/01 00:27:50;;;;;;;0.70;0.70;;;;;;;-2.39;76.18;97575.88;29373;274;63009;-57
2023/03/01 00:28:21;;;;;;;0.68;0.68;;;;;;;-2.40;76.21;97584.84;29373;230;63004;-57
2023/03/01 00:28:57;;;;;;;0.70;0.70;;;;;;;-2.40;76.52;97584.84;29373;206;63009;-57
2023/03/01 00:29:28;;;;;;;0.70;0.70;;;;;;;-2.39;76.25;97584.66;29373;303;63004;-57
2023/03/01 00:29:59;;;;;;;0.70;0.70;;;;;;;-2.39;76.16;97578.53;29373;283;63013;-56
2023/03/01 00:30:30;;;;;;;0.70;0.70;;;;;;;-2.37;76.03;97584.47;29373;297;63004;-56
2023/03/01 00:31:07;;;;;;;0.70;0.70;;;;;;;-2.38;75.80;97574.84;29371;208;64013;-56
2023/03/01 00:31:38;;;;;;;0.70;0.70;;;;;;;-2.35;75.70;97579.78;29373;279;63010;-64
2023/03/01 00:32:10;;;;;;;1.08;1.08;;;;;;;-2.36;75.80;97573.62;29373;250;63009;-56
2023/03/01 00:32:41;;;;;;;1.98;1.92;;;;;;;-2.35;75.71;97577.13;29373;209;63005;-56
2023/03/01 00:33:12;;;;;;;0.70;0.70;;;;;;;-2.34;75.37;97577.94;29373;202;63009;-57
2023/03/01 00:33:44;;;;;;;0.60;0.60;;;;;;;-2.34;75.44;97569.97;29373;202;63005;-56
2023/03/01 00:34:16;;;;;;;0.60;0.60;;;;;;;-2.34;75.55;97576.09;29373;203;63009;-57
2023/03/01 00:34:54;;;;;;;0.60;0.60;;;;;;;-2.35;75.49;97571.81;29373;216;63004;-57
2023/03/01 00:35:25;;;;;;;0.62;0.62;;;;;;;-2.34;75.37;97580.59;29372;224;64009;-56
2023/03/01 00:35:59;;;;;;;0.60;0.60;;;;;;;-2.33;75.51;97577.75;29373;234;63004;-64
2023/03/01 00:36:34;;;;;;;0.60;0.60;;;;;;;-2.36;75.57;97570.16;29371;297;64013;-56
2023/03/01 00:37:05;;;;;;;0.60;0.60;;;;;;;-2.33;75.44;97574.28;29373;276;63004;-56
2023/03/01 00:37:37;;;;;;;0.60;0.60;;;;;;;-2.34;75.47;97580.59;29373;294;63008;-64
2023/03/01 00:38:08;;;;;;;0.70;0.70;;;;;;;-2.34;75.35;97573.44;29373;202;63005;-57
2023/03/01 00:38:43;;;;;;;0.70;0.70;;;;;;;-2.35;75.55;97574.47;29373;260;63009;-57
2023/03/01 00:39:15;;;;;;;0.60;0.60;;;;;;;-2.34;75.24;97576.09;29373;238;63005;-58
2023/03/01 00:39:47;;;;;;;0.60;0.60;;;;;;;-2.34;75.62;97576.09;29373;215;63017;-56
2023/03/01 00:40:19;;;;;;;0.60;0.60;;;;;;;-2.33;75.45;97577.75;29373;256;63005;-57
2023/03/01 00:40:50;;;;;;;0.60;0.60;;;;;;;-2.33;75.24;97574.28;29373;358;63017;-57
2023/03/01 00:41:23;;;;;;;1.80;1.70;;;;;;;-2.34;75.41;97576.09;29373;209;63005;-56
2023/03/01 00:41:56;;;;;;;0.60;0.60;;;;;;;-2.35;75.55;97574.47;29371;233;64013;-57
2023/03/01 00:42:27;;;;;;;0.60;0.60;;;;;;;-2.36;75.58;97575.47;29373;202;63004;-57
2023/03/01 00:42:59;;;;;;;0.60;0.60;;;;;;;-2.38;75.52;97578.34;29373;324;63009;-57
2023/03/01 00:43:36;;;;;;;0.60;0.60;;;;;;;-2.40;75.57;97568.91;29373;206;63004;-57
2023/03/01 00:44:07;;;;;;;0.60;0.60;;;;;;;-2.40;75.36;97572.38;29373;203;63009;-56
2023/03/01 00:44:38;;;;;;;0.60;0.60;;;;;;;-2.39;75.42;97571.38;29373;220;63004;-57
2023/03/01 00:45:10;;;;;;;0.60;0.60;;;;;;;-2.39;75.76;97567.88;29373;226;63016;-57
2023/03/01 00:45:41;;;;;;;0.60;0.60;;;;;;;-2.41;75.70;97575.22;29373;222;63005;-57
2023/03/01 00:46:16;;;;;;;0.80;0.80;;;;;;;-2.42;75.83;97570.94;29373;203;63009;-57
2023/03/01 00:46:48;;;;;;;0.60;0.60;;;;;;;-2.43;75.83;97567.47;29372;197;63005;-56
2023/03/01 00:47:19;;;;;;;0.60;0.60;;;;;;;-2.44;76.10;97565.03;29371;324;64013;-57
2023/03/01 00:47:51;;;;;;;0.60;0.60;;;;;;;-2.43;76.20;97569.31;29373;241;63005;-64
2023/03/01 00:48:23;;;;;;;0.60;0.60;;;;;;;-2.41;75.83;97569.91;29373;220;63025;-56
2023/03/01 00:48:54;;;;;;;0.60;0.60;;;;;;;-2.41;75.77;97564.59;29373;244;63005;-57
2023/03/01 00:49:27;;;;;;;0.60;0.60;;;;;;;-2.42;76.40;97563.78;29371;228;64013;-57
2023/03/01 00:49:58;;;;;;;0.60;0.60;;;;;;;-2.44;76.57;97570.34;29373;317;63012;-57
2023/03/01 00:50:30;;;;;;;0.70;0.70;;;;;;;-2.47;76.50;97566.22;29373;218;63009;-56
2023/03/01 00:51:09;;;;;;;0.60;0.60;;;;;;;-2.49;76.18;97567.44;29373;274;63004;-56
2023/03/01 00:51:43;;;;;;;0.60;0.60;;;;;;;-2.51;76.42;97566.81;29373;322;63009;-56
2023/03/01 00:52:15;;;;;;;0.70;0.70;;;;;;;-2.51;76.24;97570.28;29373;231;63004;-56
2023/03/01 00:52:46;;;;;;;0.60;0.60;;;;;;;-2.50;75.99;97571.09;29373;199;63008;-57
2023/03/01 00:53:17;;;;;;;0.70;0.70;;;;;;;-2.48;75.90;97575.22;29373;209;63005;-57
2023/03/01 00:53:54;;;;;;;0.60;0.60;;;;;;;-2.47;75.91;97574.19;29371;239;64014;-57
2023/03/01 00:54:26;;;;;;;0.60;0.60;;;;;;;-2.46;75.77;97569.72;29373;313;63005;-57
2023/03/01 00:54:57;;;;;;;0.60;0.60;;;;;;;-2.46;75.84;97565.22;29371;282;64013;-57
2023/03/01 00:55:30;;;;;;;0.60;0.60;;;;;;;-2.45;76.10;97563.38;29373;213;63015;-56
2023/03/01 00:56:03;;;;;;;0.60;0.60;;;;;;;-2.46;76.18;97567.06;29373;196;63009;-56
2023/03/01 00:56:35;;;;;;;2.08;1.98;;;;;;;-2.46;76.36;97567.88;29373;265;63005;-64
2023/03/01 00:57:06;;;;;;;0.70;0.70;;;;;;;-2.45;76.78;97563.38;29373;196;63009;-56
2023/03/01 00:57:37;;;;;;;0.60;0.60;;;;;;;-2.47;76.72;97565.41;29373;227;63004;-63
2023/03/01 00:58:09;;;;;;;0.60;0.60;;;;;;;-2.47;76.50;97560.91;29373;337;63009;-64
2023/03/01 00:58:41;;;;;;;0.82;0.82;;;;;;;-2.46;76.55;97564.41;29373;262;63004;-57
2023/03/01 00:59:12;;;;;;;0.70;0.70;;;;;;;-2.46;76.64;97567.06;29373;207;63009;-57
2023/03/01 00:59:44;;;;;;;0.60;0.60;;;;;;;-2.48;76.62;97569.91;29373;250;63004;-63
2023/03/01 01:00:17;;;;;;;0.80;0.80;;;;;;;-2.51;76.59;97564.16;29371;196;64013;-64
2023/03/01 01:00:48;;;;;;;0.70;0.70;;;;;;;-2.54;76.79;97564.53;29373;196;63005;-56
2023/03/01 01:01:23;;;;;;;0.60;0.60;;;;;;;-2.54;76.96;97569.84;29373;248;63009;-57
2023/03/01 01:01:54;;;;;;;0.70;0.70;;;;;;;-2.56;76.92;97564.72;29373;198;63005;-57
2023/03/01 01:02:26;;;;;;;0.60;0.60;;;;;;;-2.56;76.99;97566.56;29373;232;63012;-56
2023/03/01 01:02:57;;;;;;;0.70;0.70;;;;;;;-2.57;76.80;97565.75;29373;258;63005;-63
2023/03/01 01:03:28;;;;;;;0.70;0.70;;;;;;;-2.57;76.70;97564.91;29373;316;63009;-57
2023/03/01 01:04:03;;;;;;;0.70;0.70;;;;;;;-2.57;76.89;97571.06;29373;197;63005;-63
2023/03/01 01:04:34;;;;;;;0.60;0.60;;;;;;;-2.57;76.89;97564.91;29371;248;64013;-64
2023/03/01 01:05:07;;;;;;;0.60;0.60;;;;;;;-2.59;76.97;97557.13;29373;210;63004;-56
2023/03/01 01:05:38;;;;;;;0.90;0.90;;;;;;;-2.63;77.13;97555.88;29373;248;63009;-57
2023/03/01 01:06:18;;;;;;;0.68;0.68;;;;;;;-2.67;77.30;97559.12;29373;203;63004;-57
2023/03/01 01:06:49;;;;;;;0.60;0.60;;;;;;;-2.68;77.63;97560.13;29373;232;63008;-57
2023/03/01 01:07:21;;;;;;;0.60;0.60;;;;;;;-2.69;77.50;97561.97;29373;296;63004;-56
2023/03/01 01:07:52;;;;;;;0.75;0.75;;;;;;;-2.67;77.31;97564.44;29371;372;64013;-56
2023/03/01 01:08:23;;;;;;;0.70;0.70;;;;;;;-2.66;77.19;97556.25;29373;266;63007;-57
2023/03/01 01:08:56;;;;;;;0.70;0.70;;;;;;;-2.65;77.72;97557.09;29373;305;63009;-64
2023/03/01 01:09:27;;;;;;;0.70;0.70;;;;;;;-2.66;77.77;97552.78;29373;266;63005;-57
2023/03/01 01:09:59;;;;;;;0.60;0.60;;;;;;;-2.66;77.74;97555.44;29373;210;63009;-56
2023/03/01 01:10:30;;;;;;;0.70;0.70;;;;;;;-2.66;77.46;97555.44;29373;196;63005;-57
2023/03/01 01:11:01;;;;;;;0.62;0.62;;;;;;;-2.65;77.90;97554.44;29373;250;63009;-57
2023/03/01 01:11:35;;;;;;;0.60;0.60;;;;;;;-2.65;77.83;97554.44;29373;229;63005;-57
2023/03/01 01:12:07;;;;;;;0.70;0.70;;;;;;;-2.64;78.11;97558.72;29371;351;64013;-57
2023/03/01 01:12:38;;;;;;;0.93;0.93;;;;;;;-2.64;78.14;97553.41;29373;272;63004;-56
2023/03/01 01:13:09;;;;;;;0.70;0.70;;;;;;;-2.64;78.12;97556.06;29371;336;64013;-57
2023/03/01 01:13:42;;;;;;;0.70;0.70;;;;;;;-2.65;77.65;97547.28;29373;218;63004;-56
2023/03/01 01:14:14;;;;;;;0.60;0.60;;;;;;;-2.64;77.85;97553.41;29373;209;63008;-57
2023/03/01 01:14:46;;;;;;;0.70;0.70;;;;;;;-2.65;77.73;97551.78;29373;351;63004;-57
2023/03/01 01:15:18;;;;;;;0.60;0.60;;;;;;;-2.66;77.99;97553.59;29373;236;63005;-57
2023/03/01 01:15:49;;;;;;;0.70;0.70;;;;;;;-2.66;77.71;97553.59;29373;222;63005;-56
2023/03/01 01:16:22;;;;;;;0.70;0.70;;;;;;;-2.70;78.03;97550.50;29371;253;64014;-57
2023/03/01 01:16:54;;;;;;;0.60;0.60;;;;;;;-2.70;78.22;97550.50;29373;196;63009;-57
2023/03/01 01:17:25;;;;;;;0.70;0.70;;;;;;;-2.68;77.81;97552.16;29371;353;64013;-57
2023/03/01 01:17:56;;;;;;;0.60;0.60;;;;;;;-2.68;77.89;97552.16;29373;202;63005;-57
2023/03/01 01:18:28;;;;;;;0.60;0.60;;;;;;;-2.66;77.75;97552.78;29373;251;63009;-57
2023/03/01 01:18:59;;;;;;;0.60;0.60;;;;;;;-2.66;77.76;97550.94;29373;204;63005;-57
2023/03/01 01:19:31;;;;;;;0.70;0.70;;;;;;;-2.65;77.72;97546.47;29373;242;63009;-58
2023/03/01 01:20:03;;;;;;;0.70;0.70;;;;;;;-2.66;77.62;97550.12;29372;275;63004;-57
2023/03/01 01:20:36;;;;;;;0.70;0.70;;;;;;;-2.66;77.63;97558.91;29373;268;63009;-57
2023/03/01 01:21:14;;;;;;;0.60;0.60;;;;;;;-2.68;77.35;97549.50;29373;242;63004;-57
2023/03/01 01:21:46;;;;;;;0.62;0.62;;;;;;;-2.74;77.56;97559.88;29373;225;63008;-57
2023/03/01 01:22:17;;;;;;;2.17;2.15;;;;;;;-2.77;77.45;97560.25;29371;349;64008;-56
2023/03/01 01:22:49;;;;;;;0.70;0.70;;;;;;;-2.79;77.64;97546.37;29373;212;63013;-57
2023/03/01 01:23:20;;;;;;;0.70;0.70;;;;;;;-2.78;77.56;97553.34;29373;266;63005;-62
2023/03/01 01:23:52;;;;;;;0.70;0.70;;;;;;;-2.78;77.78;97552.50;29373;214;63009;-57
2023/03/01 01:24:24;;;;;;;0.77;0.77;;;;;;;-2.77;77.93;97560.25;29373;321;63005;-57
2023/03/01 01:24:55;;;;;;;0.70;0.70;;;;;;;-2.75;78.28;97547.59;29373;213;63009;-57
2023/03/01 01:25:27;;;;;;;0.60;0.60;;;;;;;-2.75;78.13;97552.09;29373;285;63005;-57
2023/03/01 01:26:07;;;;;;;0.70;0.70;;;;;;;-2.74;78.34;97549.25;29373;306;63009;-57
2023/03/01 01:26:39;;;;;;;0.70;0.70;;;;;;;-2.74;78.23;97554.56;29393;243;64009;-63
2023/03/01 01:27:10;;;;;;;0.60;0.60;;;;;;;-2.73;78.26;97548.25;29394;217;64013;-57
2023/03/01 01:27:42;;;;;;;0.65;0.65;;;;;;;-2.73;78.14;97550.91;29371;225;64009;-57
2023/03/01 01:28:13;;;;;;;0.70;0.70;;;;;;;-2.71;78.09;97551.53;29373;235;63009;-56
2023/03/01 01:28:45;;;;;;;0.70;0.70;;;;;;;-2.70;78.14;97547.03;29371;287;64009;-55
2023/03/01 01:29:16;;;;;;;0.60;0.60;;;;;;;-2.75;77.84;97547.59;29373;220;63008;-57
2023/03/01 01:29:48;;;;;;;0.70;0.70;;;;;;;-2.77;78.04;97544.31;29373;202;63004;-57
2023/03/01 01:30:19;;;;;;;0.70;0.70;;;;;;;-2.78;78.29;97542.72;29373;284;63016;-57
2023/03/01 01:30:50;;;;;;;0.70;0.70;;;;;;;-2.76;77.67;97545.16;29373;238;63005;-57
2023/03/01 01:31:23;;;;;;;7.28;6.93;;;;;;;-2.74;77.63;97537.81;29371;250;64028;-57
2023/03/01 01:31:54;;;;;;;3.00;2.87;;;;;;;-2.73;77.73;97540.28;29373;210;63005;-57
2023/03/01 01:32:26;;;;;;;0.70;0.70;;;;;;;-2.73;78.06;97540.28;29373;288;63009;-57
2023/03/01 01:32:57;;;;;;;0.60;0.60;;;;;;;-2.72;78.03;97541.09;29373;208;63005;-57
2023/03/01 01:33:29;;;;;;;0.68;0.68;;;;;;;-2.73;77.84;97534.97;29371;196;64013;-58
2023/03/01 01:34:03;;;;;;;0.65;0.65;;;;;;;-2.73;77.68;97537.63;29373;203;63005;-57
2023/03/01 01:34:34;;;;;;;0.60;0.60;;;;;;;-2.70;77.51;97536.41;29373;239;63017;-57
2023/03/01 01:35:06;;;;;;;0.70;0.70;;;;;;;-2.63;76.92;97539.13;29373;247;63013;-57
2023/03/01 01:35:38;;;;;;;0.70;0.70;;;;;;;-2.61;76.70;97534.44;29373;218;63009;-56
2023/03/01 01:36:10;;;;;;;0.70;0.70;;;;;;;-2.59;76.58;97540.38;29373;202;63004;-56
2023/03/01 01:36:47;;;;;;;0.60;0.60;;;;;;;-2.59;76.79;97535.06;29372;206;64009;-56
2023/03/01 01:37:18;;;;;;;0.60;0.60;;;;;;;-2.60;76.68;97536.91;29371;344;64008;-56
2023/03/01 01:37:49;;;;;;;0.60;0.60;;;;;;;-2.61;77.08;97537.09;29373;207;63009;-57
2023/03/01 01:38:23;;;;;;;0.60;0.60;;;;;;;-2.63;76.86;97539.94;29373;219;63005;-57
2023/03/01 01:38:54;;;;;;;0.60;0.60;;;;;;;-2.64;77.27;97542.78;29373;225;63009;-57
2023/03/01 01:39:25;;;;;;;0.60;0.60;;;;;;;-2.65;76.93;97543.81;29373;277;63005;-62
2023/03/01 01:40:06;;;;;;;0.65;0.65;;;;;;;-2.66;77.14;97540.31;29373;224;63009;-56
2023/03/01 01:40:44;;;;;;;0.70;0.70;;;;;;;-2.65;77.34;97538.50;29395;202;63005;-58
2023/03/01 01:41:15;;;;;;;0.70;0.70;;;;;;;-2.65;77.46;97543.81;29395;223;63005;-57
2023/03/01 01:41:47;;;;;;;0.70;0.70;;;;;;;-2.63;77.11;97536.47;29373;277;63005;-57
2023/03/01 01:42:19;;;;;;;0.70;0.70;;;;;;;-2.62;77.34;97541.59;29371;288;64013;-57
2023/03/01 01:42:50;;;;;;;1.55;1.55;;;;;;;-2.61;77.21;97543.22;29373;278;63004;-57
2023/03/01 01:43:30;;;;;;;0.60;0.60;;;;;;;-2.61;76.88;97537.91;29371;363;64013;-57
2023/03/01 01:44:24;;;;;;;0.60;0.60;;;;;;;-2.59;76.97;97535.06;29395;203;63004;-63
2023/03/01 01:45:45;;;;;;;0.70;0.70;;;;;;;-2.59;77.00;97535.06;29373;242;63008;-58
2023/03/01 01:46:36;;;;;;;0.60;0.60;;;;;;;-2.61;77.86;97532.59;29373;231;63005;-57
2023/03/01 01:47:19;;;;;;;0.60;0.60;;;;;;;-2.64;77.69;97532.16;29371;209;64009;-57
2023/03/01 01:47:52;;;;;;;0.60;0.60;;;;;;;-2.62;77.37;97532.78;29373;223;63009;-58
2023/03/01 01:48:40;;;;;;;0.65;0.65;;;;;;;-2.62;77.50;97530.97;29373;198;63000;-57
2023/03/01 01:49:45;;;;;;;0.60;0.60;;;;;;;-2.60;77.14;97538.72;29373;371;63009;-57
2023/03/01 01:50:18;;;;;;;0.70;0.70;;;;;;;-2.60;76.78;97528.94;29373;197;63004;-56
2023/03/01 01:50:59;;;;;;;0.70;0.70;;;;;;;-2.60;76.97;97530.75;29371;214;64013;-57
2023/03/01 01:51:40;;;;;;;0.70;0.70;;;;;;;-2.60;76.88;97528.09;29395;204;63004;-57
2023/03/01 01:52:22;;;;;;;0.65;0.65;;;;;;;-2.60;76.80;97528.09;29417;257;63018;-57
2023/03/01 01:52:54;;;;;;;0.60;0.60;;;;;;;-2.60;77.03;97528.09;29395;247;63005;-56
2023/03/01 01:53:28;;;;;;;0.60;0.60;;;;;;;-2.60;76.82;97530.75;29373;197;63015;-57
2023/03/01 01:54:01;;;;;;;0.70;0.70;;;;;;;-2.61;77.11;97529.94;29373;199;63005;-57
2023/03/01 01:54:47;;;;;;;0.70;0.70;;;;;;;-2.61;76.99;97523.81;29373;251;63018;-57
2023/03/01 01:55:23;;;;;;;0.60;0.60;;;;;;;-2.60;76.97;97528.09;29373;202;63005;-57
2023/03/01 01:56:00;;;;;;;0.60;0.60;;;;;;;-2.63;77.57;97523.19;29371;221;64013;-57
2023/03/01 01:56:32;;;;;;;0.60;0.60;;;;;;;-2.62;77.40;97524.81;29373;223;63005;-57
2023/03/01 01:57:08;;;;;;;0.65;0.65;;;;;;;-2.61;77.08;97521.16;29373;243;63009;-62
2023/03/01 01:58:02;;;;;;;0.70;0.70;;;;;;;-2.60;77.03;97522.78;29373;216;63004;-57
2023/03/01 01:58:38;;;;;;;0.60;0.60;;;;;;;-2.59;77.06;97519.13;29373;228;63004;-56
2023/03/01 01:59:11;;;;;;;0.60;0.60;;;;;;;-2.57;77.55;97519.75;29373;288;63004;-56
2023/03/01 01:59:47;;;;;;;0.60;0.60;;;;;;;-2.56;77.46;97518.72;29373;226;63013;-57
2023/03/01 02:00:27;;;;;;;0.62;0.62;;;;;;;-2.55;77.09;97515.06;29373;204;63005;-57
2023/03/01 02:01:00;;;;;;;0.70;0.70;;;;;;;-2.53;76.99;97521.81;29371;197;64014;-57
2023/03/01 02:01:34;;;;;;;0.60;0.60;;;;;;;-2.50;76.92;97512.66;29373;259;63005;-57
2023/03/01 02:02:05;;;;;;;0.70;0.70;;;;;;;-2.50;77.33;97517.97;29373;206;63009;-57
2023/03/01 02:02:40;;;;;;;0.70;0.70;;;;;;;-2.50;77.62;97516.13;29373;207;63005;-62
2023/03/01 02:03:19;;;;;;;0.70;0.70;;;;;;;-2.52;77.56;97520.00;29373;216;63009;-57
2023/03/01 02:03:52;;;;;;;0.60;0.60;;;;;;;-2.52;77.68;97517.34;29373;222;63005;-57
2023/03/01 02:04:23;;;;;;;0.60;0.60;;;;;;;-2.52;77.77;97520.00;29371;247;64013;-57
2023/03/01 02:05:10;;;;;;;0.73;0.73;;;;;;;-2.52;77.61;97514.69;29373;283;63004;-57
2023/03/01 02:06:06;;;;;;;0.60;0.60;;;;;;;-2.51;77.40;97516.31;29373;203;63009;-57
2023/03/01 02:06:45;;;;;;;0.70;0.70;;;;;;;-2.52;77.67;97512.84;29373;213;63004;-57
2023/03/01 02:07:21;;;;;;;0.70;0.70;;;;;;;-2.53;78.06;97513.84;29373;196;63008;-57
2023/03/01 02:07:58;;;;;;;2.75;2.65;;;;;;;-2.53;78.09;97521.00;29373;223;63005;-62
2023/03/01 02:08:32;;;;;;;0.60;0.60;;;;;;;-2.54;77.82;97511.41;29372;218;64009;-57
2023/03/01 02:09:15;;;;;;;5.18;4.97;;;;;;;-2.56;78.06;97514.25;29373;222;63009;-57
2023/03/01 02:09:53;;;;;;;0.62;0.62;;;;;;;-2.54;77.91;97516.72;29371;216;64013;-58
2023/03/01 02:10:27;;;;;;;0.60;0.60;;;;;;;-2.53;77.69;97518.34;29373;209;63008;-57
2023/03/01 02:11:02;;;;;;;0.60;0.60;;;;;;;-2.52;77.18;97512.84;29373;281;63009;-57
2023/03/01 02:11:37;;;;;;;0.65;0.65;;;;;;;-2.50;77.03;97497.53;29373;310;63004;-57
2023/03/01 02:12:09;;;;;;;0.60;0.60;;;;;;;-2.49;77.27;97503.66;29373;212;63019;-57
2023/03/01 02:12:40;;;;;;;0.60;0.60;;;;;;;-2.47;77.07;97496.31;29373;305;63004;-57
2023/03/01 02:13:12;;;;;;;0.60;0.60;;;;;;;-2.47;77.40;97498.97;29373;282;63009;-58
2023/03/01 02:13:47;;;;;;;0.60;0.60;;;;;;;-2.47;77.81;97498.97;29373;220;63004;-57
2023/03/01 02:14:18;;;;;;;0.70;0.70;;;;;;;-2.46;77.56;97497.97;29371;196;64013;-57
2023/03/01 02:14:50;;;;;;;0.80;0.80;;;;;;;-2.46;77.53;97497.97;29373;260;63004;-57
2023/03/01 02:15:21;;;;;;;0.60;0.60;;;;;;;-2.47;77.48;97496.31;29373;302;63008;-57
2023/03/01 02:15:52;;;;;;;1.23;1.23;;;;;;;-2.45;77.39;97499.59;29373;334;63005;-57
2023/03/01 02:16:26;;;;;;;1.40;1.33;;;;;;;-2.44;77.48;97495.94;29373;367;63009;-57
2023/03/01 02:16:57;;;;;;;0.60;0.60;;;;;;;-2.42;76.93;97493.87;29373;226;63005;-57
2023/03/01 02:17:29;;;;;;;0.60;0.60;;;;;;;-2.39;76.96;97493.47;29371;223;64013;-57
2023/03/01 02:18:02;;;;;;;0.68;0.68;;;;;;;-2.37;76.89;97491.44;29373;364;63008;-57
2023/03/01 02:18:33;;;;;;;0.70;0.70;;;;;;;-2.37;76.65;97491.44;29373;210;63009;-59
2023/03/01 02:19:06;;;;;;;0.60;0.60;;;;;;;-2.36;76.58;97498.41;29373;269;63004;-57
2023/03/01 02:20:01;;;;;;;0.70;0.70;;;;;;;-2.38;76.66;97495.13;29371;204;64013;-58
2023/03/01 02:21:19;;;;;;;0.70;0.70;;;;;;;-2.38;76.61;97490.62;29372;269;64004;-57
2023/03/01 02:22:06;;;;;;;0.70;0.70;;;;;;;-2.36;77.23;97493.09;29373;215;63008;-57
2023/03/01 02:22:43;;;;;;;0.62;0.62;;;;;;;-2.34;77.09;97485.75;29371;219;64009;-57
2023/03/01 02:23:15;;;;;;;0.70;0.70;;;;;;;-2.32;77.18;97489.03;29372;219;64009;-57
2023/03/01 02:23:47;;;;;;;0.70;0.70;;;;;;;-2.31;76.76;97484.53;29372;206;63005;-57
2023/03/01 02:25:09;;;;;;;0.60;0.60;;;;;;;-2.31;76.57;97484.53;29371;212;64013;-58
2023/03/01 02:26:38;;;;;;;0.70;0.70;;;;;;;-2.27;76.35;97480.47;29393;314;64009;-57
2023/03/01 02:27:10;;;;;;;0.60;0.60;;;;;;;-2.27;76.11;97480.47;29395;208;63009;-57
2023/03/01 02:28:00;;;;;;;0.60;0.60;;;;;;;-2.26;76.11;97482.91;29373;386;63004;-57
2023/03/01 02:28:37;;;;;;;0.70;0.70;;;;;;;-2.28;76.53;97481.47;29373;198;63009;-57
2023/03/01 02:29:09;;;;;;;0.60;0.60;;;;;;;-2.29;76.62;97477.19;29373;288;63004;-57
2023/03/01 02:29:43;;;;;;;0.70;0.70;;;;;;;-2.29;76.46;97483.31;29371;234;64014;-57
2023/03/01 02:30:15;;;;;;;0.70;0.70;;;;;;;-2.28;76.52;97474.31;29373;204;63005;-58
2023/03/01 02:32:02;;;;;;;0.60;0.60;;;;;;;-2.31;76.48;97474.72;29373;254;63005;-57
2023/03/01 02:32:35;;;;;;;1.90;1.77;;;;;;;-2.30;76.51;97480.84;29373;249;63009;-61
2023/03/01 02:33:06;;;;;;;0.70;0.70;;;;;;;-2.29;76.29;97485.97;29373;202;63005;-63
2023/03/01 02:33:39;;;;;;;0.60;0.60;;;;;;;-2.29;76.39;97480.66;29373;277;63009;-57
2023/03/01 02:34:17;;;;;;;3.33;3.22;;;;;;;-2.28;76.03;97479.63;29371;319;64009;-57
2023/03/01 02:34:49;;;;;;;0.60;0.60;;;;;;;-2.26;76.41;97479.44;29371;215;64013;-57
2023/03/01 02:35:22;;;;;;;0.60;0.60;;;;;;;-2.27;75.96;97475.97;29373;211;63004;-56
2023/03/01 02:35:56;;;;;;;0.60;0.60;;;;;;;-2.28;76.25;97474.31;29373;240;63009;-58
2023/03/01 02:36:39;;;;;;;0.60;0.60;;;;;;;-2.28;75.88;97476.97;29373;352;63004;-56
2023/03/01 02:37:20;;;;;;;0.70;0.70;;;;;;;-2.28;76.18;97476.97;29371;236;64014;-58
2023/03/01 02:37:51;;;;;;;0.60;0.60;;;;;;;-2.29;76.57;97470.03;29393;210;64009;-57
2023/03/01 02:38:24;;;;;;;0.60;0.60;;;;;;;-2.27;76.34;97469.81;29394;220;64014;-57
2023/03/01 02:38:59;;;;;;;0.60;0.60;;;;;;;-2.27;76.17;97465.34;29373;220;63005;-57
2023/03/01 02:39:48;;;;;;;0.70;0.70;;;;;;;-2.25;76.49;97473.13;29373;202;63009;-56
2023/03/01 02:40:21;;;;;;;0.70;0.70;;;;;;;-2.26;76.52;97466.97;29373;288;63009;-57
2023/03/01 02:40:57;;;;;;;0.70;0.70;;;;;;;-2.25;76.80;97468.63;29373;208;63009;-57
2023/03/01 02:41:34;;;;;;;0.60;0.60;;;;;;;-2.23;76.44;97468.41;29373;265;63000;-57
2023/03/01 02:42:06;;;;;;;0.60;0.60;;;;;;;-2.23;76.77;97465.75;29373;227;63009;-57
2023/03/01 02:42:53;;;;;;;0.60;0.60;;;;;;;-2.24;76.27;97464.94;29373;203;63004;-57
2023/03/01 02:43:28;;;;;;;15.73;14.82;;;;;;;-2.22;76.19;97457.59;29361;202;66013;-57
2023/03/01 02:44:00;;;;;;;0.68;0.68;;;;;;;-2.21;75.77;97464.53;29373;202;63004;-57
2023/03/01 02:44:32;;;;;;;1.55;1.55;;;;;;;-2.19;75.95;97467.00;29371;246;64013;-58
2023/03/01 02:45:05;;;;;;;0.70;0.70;;;;;;;-2.18;75.71;97463.34;29373;209;63005;-57
2023/03/01 02:45:36;;;;;;;0.70;0.70;;;;;;;-2.18;76.23;97469.47;29373;290;63009;-57